Almond, New York
Current Conditions -  °F | °C
As of 8:54 AM on Thursday 30 Oct 2014 (Local Time) from KDSV Reporting Station
Overcast Overcast  
Wind Chill:   Ceiling: 3000
Heat Index:   Visibility: 10mi
Dew Point:   Wind: 5mph
Humidity: 82%   Direction: 340°NNW
Pressure: 30.07"   Gusts: NA
Location:  42.32°N, 77.74°W
Report Text: KDSV 301254Z AUTO 34004KT 10SM OVC030 06/03 A3007 RMK AO2 SLP193 T00610033
Loading
Personal Weather Stations






























Interactive Weather Map
Tropical Storm Tracking
New forecast layout! Learn more

10-Day Weather Forecast

Advertisements
Track Severe Weather on mobile